INFORMAÇÕES DO AERODROMO
Icao Aerodromo LPMA Nome do Aerodromo Madeira Airport Cidade Funchal
Código GPS LPMA Elevação Média 192 ft Tipo de Aerodromo Aeroporto Médio Porte

INFORMAÇÃO DE PISTA
Pista 05 Comprimento da Pista 9110 ft Largura da Pista 148 ft
Elevação da Pista 147 ft Distância de Area de Escape da Pista 480 ft Orientação da Pista 45
Pista 23 Comprimento da Pista 9110 ft Largura da Pista 148 ft
Elevação da Pista 192 ft Distância de Area de Escape da Pista 490 ft Orientação da Pista 225

FREQUÊNCIAS DO AERODROMO
Tipo APP Nome APP Frequência 119.2 MHZ
Tipo TWR Nome TWR Frequência 118.35 MHZ

INFORMAÇÕES DE NAVEGAÇÃO PRÓXIMO AO AERODROMO
Tipo VOR-DME Nome Madeira Frequência 112200 KHZ
Tipo NDB Nome Madeira Frequência 318 KHZ

Informações de Meteorologia(METAR atual)
METAR DE LPMA
ADDS - METARS form results

(0224 UTC 17 July 2019)
Data provider http://aviationweather.gov/metar/data/
 
METAR text: LPMA 170200Z 02016KT 9999 SCT016 21/14 Q1022
Conditions at: LPMA (FUNCHAL/MADEIRA , PT) observed 0200 UTC 17 July 2019
Temperature: 21.0°C (70°F)
Dewpoint: 14.0°C (57°F) [RH = 64%]
Pressure (altimeter): 30.18 inches Hg (1022.0 mb)
Winds: from the NNE (20 degrees) at 18 MPH (16 knots; 8.2 m/s)
Visibility: 6 or more miles (10+ km)
Ceiling: at least 12,000 feet AGL
Clouds: scattered clouds at 1600 feet AGL
Weather: no significant weather observed at this time

METAR text: LPMA 170130Z 02017KT 350V060 9999 SCT016 21/14 Q1022
Conditions at: LPMA (FUNCHAL/MADEIRA , PT) observed 0130 UTC 17 July 2019
Temperature: 21.0°C (70°F)
Dewpoint: 14.0°C (57°F) [RH = 64%]
Pressure (altimeter): 30.18 inches Hg (1022.0 mb)
Winds: from the NNE (20 degrees) at 20 MPH (17 knots; 8.7 m/s)
Visibility: 6 or more miles (10+ km)
Ceiling: at least 12,000 feet AGL
Clouds: scattered clouds at 1600 feet AGL
Weather: no significant weather observed at this time

Forecast for: LPMA (FUNCHAL/MADEIRA , PT)
Text: TAF LPMA 162300Z 1700/1724 02015KT 9999 SCT016
Forecast period: 0000 UTC 17 July 2019 to 0000 UTC 18 July 2019
Forecast type: FROM: standard forecast or significant change
Winds: from the NNE (20 degrees) at 17 MPH (15 knots; 7.7 m/s)
Visibility: 6 or more miles 10+ km)
Ceiling: at least 12,000 feet AGL
Clouds: scattered clouds at 1600 feet AGL
Weather: no significant weather forecast for this period
Text: TEMPO 1700/1724 02020G33KT
Forecast period: 0000 UTC 17 July 2019 to 0000 UTC 18 July 2019
Forecast type: TEMPORARY: The following changes expected for less than half the time period
Winds: from the NNE (20 degrees) at 23 MPH (20 knots; 10.3 m/s)
gusting to 38 MPH (33 knots; 17.0 m/s)
Visibility: missing
Ceiling: unknown
Clouds: missing
Weather: no significant weather forecast for this period

MAPA DO AERODROMO


Desenvolvido por Virtual Airlines Manager




Modificado por Servidor Brasil Amigos